createdAt,value
2019-01-04T00:00:36.606Z,-2.80
2019-01-04T00:03:05.470Z,-2.90
2019-01-04T00:05:34.417Z,-3.00
2019-01-04T00:08:03.476Z,-3.10
2019-01-04T00:10:32.341Z,-3.10
2019-01-04T00:13:01.204Z,-3.10
2019-01-04T00:15:30.135Z,-3.20
2019-01-04T00:17:58.998Z,-3.20
2019-01-04T00:20:27.858Z,-3.30
2019-01-04T00:22:56.723Z,-3.30
2019-01-04T00:25:25.570Z,-3.40
2019-01-04T00:27:54.528Z,-3.40
2019-01-04T00:30:23.382Z,-3.30
2019-01-04T00:32:52.173Z,-3.30
2019-01-04T00:35:21.024Z,-3.30
2019-01-04T00:37:49.955Z,-3.30
2019-01-04T00:40:19.132Z,-3.30
2019-01-04T00:42:48.140Z,-3.40
2019-01-04T00:45:17.026Z,-3.30
2019-01-04T00:47:46.178Z,-3.30
2019-01-04T00:50:15.168Z,-3.40
2019-01-04T00:52:44.133Z,-3.40
2019-01-04T00:55:52.432Z,-3.40
2019-01-04T00:58:54.678Z,-3.30
2019-01-04T01:02:12.745Z,-3.20
2019-01-04T01:05:40.930Z,-3.20
2019-01-04T01:08:47.473Z,-3.10
2019-01-04T01:11:59.185Z,-3.10
2019-01-04T01:15:03.082Z,-3.10
2019-01-04T01:18:08.129Z,-3.20
2019-01-04T01:21:08.279Z,-3.20
2019-01-04T01:24:28.361Z,-3.20
2019-01-04T01:27:42.252Z,-3.20
2019-01-04T01:30:58.376Z,-3.10
2019-01-04T01:33:57.436Z,-3.10
2019-01-04T01:36:55.337Z,-3.00
2019-01-04T01:39:55.145Z,-3.00
2019-01-04T01:42:37.890Z,-3.00
2019-01-04T01:49:14.470Z,-2.80
2019-01-04T01:52:09.191Z,-2.70
2019-01-04T01:54:38.030Z,-2.50
2019-01-04T01:57:06.861Z,-2.30
2019-01-04T01:59:36.089Z,-2.10
2019-01-04T02:02:04.995Z,-2.00
2019-01-04T02:04:33.902Z,-1.90
2019-01-04T02:07:02.812Z,-1.80
2019-01-04T02:09:31.754Z,-1.80
2019-01-04T02:12:00.652Z,-1.80
2019-01-04T02:14:29.487Z,-1.80
2019-01-04T02:16:58.304Z,-1.80
2019-01-04T02:19:27.204Z,-1.70
2019-01-04T02:21:56.036Z,-1.70
2019-01-04T02:24:24.899Z,-1.60
2019-01-04T02:26:53.782Z,-1.60
2019-01-04T02:29:22.707Z,-1.60
2019-01-04T02:31:51.657Z,-1.50
2019-01-04T02:34:20.940Z,-1.50
2019-01-04T02:36:49.905Z,-1.60
2019-01-04T02:39:18.748Z,-1.70
2019-01-04T02:41:47.568Z,-1.90
2019-01-04T02:44:16.425Z,-2.20
2019-01-04T02:46:45.320Z,-2.40
2019-01-04T02:49:14.140Z,-2.40
2019-01-04T02:51:42.971Z,-2.20
2019-01-04T02:54:12.046Z,-2.10
2019-01-04T02:56:41.199Z,-2.00
2019-01-04T02:59:10.034Z,-2.00
2019-01-04T03:01:38.966Z,-1.90
2019-01-04T03:04:07.791Z,-1.80
2019-01-04T03:06:36.724Z,-1.80
2019-01-04T03:09:06.763Z,-1.80
2019-01-04T03:11:35.681Z,-1.70
2019-01-04T03:14:04.562Z,-1.60
2019-01-04T03:16:33.420Z,-1.50
2019-01-04T03:19:02.461Z,-1.40
2019-01-04T03:21:31.437Z,-1.40
2019-01-04T03:24:00.218Z,-1.30
2019-01-04T03:26:29.091Z,-1.30
2019-01-04T03:28:57.931Z,-1.30
2019-01-04T03:31:26.813Z,-1.20
2019-01-04T03:33:55.691Z,-1.20
2019-01-04T03:36:24.624Z,-1.10
2019-01-04T03:38:53.439Z,-1.10
2019-01-04T03:41:22.367Z,-1.00
2019-01-04T03:43:51.291Z,-1.00
2019-01-04T03:46:20.128Z,-0.90
2019-01-04T03:48:48.997Z,-0.90
2019-01-04T03:51:18.198Z,-1.00
2019-01-04T03:53:47.134Z,-1.00
2019-01-04T03:56:16.025Z,-1.00
2019-01-04T03:58:45.351Z,-1.00
2019-01-04T04:01:14.349Z,-1.00
2019-01-04T04:03:43.192Z,-1.00
2019-01-04T04:06:12.077Z,-1.00
2019-01-04T04:08:40.988Z,-1.00
2019-01-04T04:11:09.808Z,-1.10
2019-01-04T04:13:38.960Z,-1.20
2019-01-04T04:16:07.861Z,-1.40
2019-01-04T04:18:36.702Z,-1.50
2019-01-04T04:21:05.511Z,-1.60
2019-01-04T04:23:34.340Z,-1.60
2019-01-04T04:26:03.392Z,-1.70
2019-01-04T04:28:32.299Z,-1.80
2019-01-04T04:31:01.106Z,-2.00
2019-01-04T04:33:30.022Z,-1.90
2019-01-04T04:35:58.836Z,-1.90
2019-01-04T04:38:27.676Z,-1.80
2019-01-04T04:40:56.581Z,-1.80
2019-01-04T04:43:25.440Z,-1.60
2019-01-04T04:45:54.342Z,-1.50
2019-01-04T04:48:23.442Z,-1.40
2019-01-04T04:50:52.905Z,-1.20
2019-01-04T04:53:21.804Z,-1.20
2019-01-04T04:55:50.769Z,-1.10
2019-01-04T04:58:19.682Z,-1.00
2019-01-04T05:00:48.659Z,-0.90
2019-01-04T05:03:17.608Z,-0.90
2019-01-04T05:05:46.577Z,-0.90
2019-01-04T05:08:15.431Z,-0.80
2019-01-04T05:10:44.403Z,-0.70
2019-01-04T05:13:13.424Z,-0.70
2019-01-04T05:15:42.352Z,-0.60
2019-01-04T05:18:11.218Z,-0.50
2019-01-04T05:20:40.137Z,-0.40
2019-01-04T05:23:08.996Z,-0.40
2019-01-04T05:25:38.111Z,-0.30
2019-01-04T05:28:07.041Z,-0.20
2019-01-04T05:30:35.975Z,-0.20
2019-01-04T05:33:04.937Z,-0.10
2019-01-04T05:35:33.780Z,-0.10
2019-01-04T05:38:02.697Z,-0.10
2019-01-04T05:40:31.584Z,-0.10
2019-01-04T05:43:00.423Z,-0.20
2019-01-04T05:45:29.481Z,-0.30
2019-01-04T05:47:58.360Z,-0.40
2019-01-04T05:50:27.423Z,-0.50
2019-01-04T05:52:56.262Z,-0.70
2019-01-04T05:55:25.100Z,-0.80
2019-01-04T05:57:53.919Z,-0.90
2019-01-04T06:00:22.844Z,-1.00
2019-01-04T06:02:51.651Z,-1.10
2019-01-04T06:05:20.551Z,-1.20
2019-01-04T06:07:49.414Z,-1.20
2019-01-04T06:10:18.230Z,-1.20
2019-01-04T06:12:47.075Z,-1.00
2019-01-04T06:15:16.008Z,-0.90
2019-01-04T06:17:44.927Z,-0.90
2019-01-04T06:20:13.907Z,-0.90
2019-01-04T06:22:42.832Z,-0.90
2019-01-04T06:25:11.726Z,-1.00
2019-01-04T06:27:40.559Z,-1.10
2019-01-04T06:30:09.440Z,-1.20
2019-01-04T06:32:38.376Z,-1.20
2019-01-04T06:35:08.172Z,-1.20
2019-01-04T06:37:37.027Z,-1.20
2019-01-04T06:40:07.920Z,-1.10
2019-01-04T06:42:37.093Z,-1.10
2019-01-04T06:45:06.507Z,-1.00
2019-01-04T06:47:36.365Z,-1.00
2019-01-04T06:50:06.122Z,-1.00
2019-01-04T06:52:34.964Z,-1.10
2019-01-04T06:55:46.448Z,-1.10
2019-01-04T06:58:15.387Z,-1.10
2019-01-04T07:00:44.380Z,-1.20
2019-01-04T07:03:13.292Z,-1.20
2019-01-04T07:05:42.187Z,-1.10
2019-01-04T07:08:11.228Z,-1.00
2019-01-04T07:10:40.170Z,-0.80
2019-01-04T07:13:09.059Z,-0.60
2019-01-04T07:15:38.010Z,-0.50
2019-01-04T07:18:06.862Z,-0.40
2019-01-04T07:20:35.788Z,-0.30
2019-01-04T07:23:04.789Z,-0.20
2019-01-04T07:25:33.708Z,-0.10
2019-01-04T07:28:02.616Z,-0.10
2019-01-04T07:30:31.581Z,0.00
2019-01-04T07:33:00.482Z,0.10
2019-01-04T07:35:29.540Z,0.10
2019-01-04T07:37:58.430Z,0.10
2019-01-04T07:40:27.644Z,0.20
2019-01-04T07:42:56.555Z,0.20
2019-01-04T07:45:25.695Z,0.20
2019-01-04T07:47:54.684Z,0.30
2019-01-04T07:50:23.643Z,0.30
2019-01-04T07:52:52.710Z,0.30
2019-01-04T07:55:21.739Z,0.40
2019-01-04T07:57:50.919Z,0.40
2019-01-04T08:00:20.171Z,0.40
2019-01-04T08:02:50.763Z,0.40
2019-01-04T08:05:24.075Z,0.40
2019-01-04T08:07:53.880Z,0.40
2019-01-04T08:10:23.170Z,0.40
2019-01-04T08:12:52.195Z,0.40
2019-01-04T08:15:21.388Z,0.50
2019-01-04T08:17:50.287Z,0.50
2019-01-04T08:20:19.259Z,0.50
2019-01-04T08:22:48.081Z,0.50
2019-01-04T08:25:16.906Z,0.50
2019-01-04T08:27:45.732Z,0.50
2019-01-04T08:30:16.329Z,0.50
2019-01-04T08:32:45.234Z,0.60
2019-01-04T08:35:14.206Z,0.60
2019-01-04T08:37:43.191Z,0.50
2019-01-04T08:40:13.279Z,0.60
2019-01-04T08:42:42.329Z,0.60
2019-01-04T08:45:12.700Z,0.60
2019-01-04T08:47:42.000Z,0.70
2019-01-04T08:50:12.634Z,0.70
2019-01-04T08:52:41.530Z,0.70
2019-01-04T08:55:16.483Z,0.70
2019-01-04T08:57:45.382Z,0.80
2019-01-04T09:00:14.557Z,0.80
2019-01-04T09:02:43.362Z,0.80
2019-01-04T09:05:12.222Z,0.90
2019-01-04T09:07:41.391Z,1.00
2019-01-04T09:10:10.375Z,1.00
2019-01-04T09:12:39.186Z,1.10
2019-01-04T09:15:10.043Z,1.20
2019-01-04T09:17:38.937Z,1.20
2019-01-04T09:20:10.088Z,1.30
2019-01-04T09:22:39.262Z,1.30
2019-01-04T09:25:09.703Z,1.40
2019-01-04T09:27:38.910Z,1.50
2019-01-04T09:30:11.428Z,1.50
2019-01-04T09:32:40.303Z,1.60
2019-01-04T09:35:09.518Z,1.60
2019-01-04T09:37:38.685Z,1.70
2019-01-04T09:40:10.114Z,1.70
2019-01-04T09:42:39.212Z,1.70
2019-01-04T09:45:09.427Z,1.80
2019-01-04T09:47:38.327Z,1.90
2019-01-04T09:50:08.476Z,2.00
2019-01-04T09:52:37.895Z,2.00
2019-01-04T09:55:07.425Z,2.00
2019-01-04T09:57:36.371Z,2.00
2019-01-04T10:00:07.888Z,2.10
2019-01-04T10:02:36.981Z,2.10
2019-01-04T10:05:06.115Z,2.00
2019-01-04T10:07:35.036Z,1.90
2019-01-04T10:10:04.124Z,1.80
2019-01-04T10:12:32.946Z,1.80
2019-01-04T10:15:01.756Z,1.90
2019-01-04T10:17:30.579Z,1.90
2019-01-04T10:19:59.481Z,1.90
2019-01-04T10:22:28.306Z,2.00
2019-01-04T10:24:57.192Z,2.10
2019-01-04T10:27:26.096Z,2.10
2019-01-04T10:29:54.917Z,2.10
2019-01-04T10:32:23.774Z,2.20
2019-01-04T10:34:52.671Z,2.20
2019-01-04T10:37:21.587Z,2.20
2019-01-04T10:39:50.458Z,2.20
2019-01-04T10:42:19.348Z,2.30
2019-01-04T10:44:48.239Z,2.20
2019-01-04T10:47:17.182Z,2.20
2019-01-04T10:49:46.102Z,2.20
2019-01-04T10:52:15.551Z,2.20
2019-01-04T10:54:44.434Z,2.20
2019-01-04T10:57:13.641Z,2.30
2019-01-04T10:59:42.594Z,2.40
2019-01-04T11:02:11.475Z,2.50
2019-01-04T11:04:40.320Z,2.60
2019-01-04T11:07:09.256Z,2.80
2019-01-04T11:09:38.151Z,2.90
2019-01-04T11:12:07.042Z,2.90
2019-01-04T11:14:35.871Z,2.80
2019-01-04T11:17:04.848Z,2.70
2019-01-04T11:19:33.752Z,2.70
2019-01-04T11:22:38.734Z,2.60
2019-01-04T11:25:49.538Z,2.60
2019-01-04T11:28:56.869Z,2.60
2019-01-04T11:32:02.750Z,2.60
2019-01-04T11:35:29.812Z,2.60
2019-01-04T11:38:11.928Z,2.70
2019-01-04T11:41:25.054Z,2.60
2019-01-04T11:44:43.002Z,2.50
2019-01-04T11:47:46.059Z,2.40
2019-01-04T11:51:08.466Z,2.30
2019-01-04T11:53:37.276Z,2.20
2019-01-04T11:56:06.363Z,2.20
2019-01-04T11:58:35.184Z,2.20
2019-01-04T12:01:04.490Z,2.30
2019-01-04T12:03:33.643Z,2.30
2019-01-04T12:06:02.675Z,2.20
2019-01-04T12:08:31.822Z,2.20
2019-01-04T12:11:00.948Z,2.20
2019-01-04T12:13:30.024Z,2.20
2019-01-04T12:15:58.967Z,2.20
2019-01-04T12:18:28.132Z,2.20
2019-01-04T12:20:57.029Z,2.20
2019-01-04T12:23:26.193Z,2.20
2019-01-04T12:25:55.091Z,2.30
2019-01-04T12:28:23.936Z,2.40
2019-01-04T12:30:52.794Z,2.40
2019-01-04T12:33:21.624Z,2.50
2019-01-04T12:35:50.743Z,2.50
2019-01-04T12:38:19.656Z,2.50
2019-01-04T12:40:48.492Z,2.60
2019-01-04T12:43:17.409Z,2.50
2019-01-04T12:45:47.468Z,2.50
2019-01-04T12:48:16.361Z,2.60
2019-01-04T12:50:45.243Z,2.60
2019-01-04T12:53:14.176Z,2.60
2019-01-04T12:55:43.362Z,2.60
2019-01-04T12:58:12.263Z,2.60
2019-01-04T13:00:41.155Z,2.60
2019-01-04T13:03:10.079Z,2.70
2019-01-04T13:05:39.305Z,2.70
2019-01-04T13:08:08.216Z,2.70
2019-01-04T13:10:37.183Z,2.80
2019-01-04T13:13:06.026Z,2.80
2019-01-04T13:15:34.962Z,2.80
2019-01-04T13:18:04.029Z,2.80
2019-01-04T13:20:32.985Z,2.80
2019-01-04T13:23:02.525Z,2.80
2019-01-04T13:25:31.545Z,2.70
2019-01-04T13:28:00.622Z,2.70
2019-01-04T13:30:29.683Z,2.70
2019-01-04T13:32:58.713Z,2.80
2019-01-04T13:35:27.638Z,2.80
2019-01-04T13:37:56.603Z,2.80
2019-01-04T13:40:25.647Z,2.80
2019-01-04T13:42:54.606Z,2.80
2019-01-04T13:45:23.514Z,2.90
2019-01-04T13:47:52.364Z,2.80
2019-01-04T13:50:21.242Z,2.90
2019-01-04T13:52:50.121Z,2.90
2019-01-04T13:55:19.985Z,2.80
2019-01-04T13:57:49.990Z,2.80
2019-01-04T14:00:18.939Z,2.80
2019-01-04T14:02:47.862Z,2.70
2019-01-04T14:05:16.649Z,2.70
2019-01-04T14:07:45.422Z,2.70
2019-01-04T14:10:14.192Z,2.60
2019-01-04T14:12:43.038Z,2.60
2019-01-04T14:15:11.969Z,2.60
2019-01-04T14:17:40.758Z,2.60
2019-01-04T14:20:09.799Z,2.60
2019-01-04T14:22:38.714Z,2.60
2019-01-04T14:25:08.384Z,2.60
2019-01-04T14:27:37.218Z,2.60
2019-01-04T14:30:07.976Z,2.50
2019-01-04T14:32:36.829Z,2.50
2019-01-04T14:35:06.037Z,2.50
2019-01-04T14:37:34.946Z,2.40
2019-01-04T14:40:04.545Z,2.40
2019-01-04T14:42:33.409Z,2.40
2019-01-04T14:45:02.434Z,2.40
2019-01-04T14:47:31.294Z,2.40
2019-01-04T14:50:00.514Z,2.30
2019-01-04T14:52:29.326Z,2.30
2019-01-04T14:54:58.131Z,2.30
2019-01-04T14:57:27.537Z,2.30
2019-01-04T14:59:56.396Z,2.40
2019-01-04T15:02:25.213Z,2.40
2019-01-04T15:04:53.995Z,2.40
2019-01-04T15:07:23.034Z,2.40
2019-01-04T15:09:51.879Z,2.30
2019-01-04T15:12:21.000Z,2.40
2019-01-04T15:14:49.766Z,2.40
2019-01-04T15:17:18.559Z,2.30
2019-01-04T15:19:47.322Z,2.30
2019-01-04T15:22:16.316Z,2.30
2019-01-04T15:24:45.174Z,2.30
2019-01-04T15:27:14.473Z,2.30
2019-01-04T15:29:43.242Z,2.30
2019-01-04T15:32:12.102Z,2.20
2019-01-04T15:34:41.099Z,2.20
2019-01-04T15:37:09.881Z,2.20
2019-01-04T15:39:38.673Z,2.20
2019-01-04T15:42:07.619Z,2.20
2019-01-04T15:44:36.499Z,2.20
2019-01-04T15:47:05.439Z,2.20
2019-01-04T15:49:34.546Z,2.20
2019-01-04T15:52:03.418Z,2.20
2019-01-04T15:54:32.306Z,2.20
2019-01-04T15:57:01.267Z,2.20
2019-01-04T15:59:30.194Z,2.20
2019-01-04T16:01:59.338Z,2.20
2019-01-04T16:04:28.195Z,2.20
2019-01-04T16:06:57.099Z,2.20
2019-01-04T16:09:26.071Z,2.20
2019-01-04T16:11:55.015Z,2.10
2019-01-04T16:14:23.979Z,2.10
2019-01-04T16:16:52.833Z,2.10
2019-01-04T16:19:22.156Z,2.10
2019-01-04T16:21:51.331Z,2.10
2019-01-04T16:24:20.188Z,2.10
2019-01-04T16:26:49.339Z,2.10
2019-01-04T16:29:18.549Z,2.10
2019-01-04T16:31:47.471Z,2.10
2019-01-04T16:34:16.414Z,2.10
2019-01-04T16:36:45.371Z,2.10
2019-01-04T16:39:14.306Z,2.10
2019-01-04T16:41:43.297Z,2.10
2019-01-04T16:44:12.351Z,2.10
2019-01-04T16:46:41.315Z,2.10
2019-01-04T16:49:10.263Z,2.10
2019-01-04T16:51:39.198Z,2.10
2019-01-04T16:54:08.244Z,2.20
2019-01-04T16:56:37.186Z,2.20
2019-01-04T16:59:06.128Z,2.20
2019-01-04T17:01:35.030Z,2.20
2019-01-04T17:04:04.059Z,2.20
2019-01-04T17:06:32.981Z,2.20
2019-01-04T17:09:01.931Z,2.20
2019-01-04T17:11:31.182Z,2.20
2019-01-04T17:14:00.191Z,2.20
2019-01-04T17:16:29.055Z,2.20
2019-01-04T17:18:57.907Z,2.20
2019-01-04T17:21:26.831Z,2.10
2019-01-04T17:23:55.689Z,2.10
2019-01-04T17:26:24.606Z,2.10
2019-01-04T17:28:53.838Z,2.20
2019-01-04T17:31:22.703Z,2.20
2019-01-04T17:33:51.567Z,2.20
2019-01-04T17:36:20.438Z,2.20
2019-01-04T17:38:49.342Z,2.20
2019-01-04T17:41:18.739Z,2.20
2019-01-04T17:43:47.754Z,2.20
2019-01-04T17:46:16.923Z,2.20
2019-01-04T17:48:45.863Z,2.20
2019-01-04T17:51:14.801Z,2.20
2019-01-04T17:53:44.110Z,2.20
2019-01-04T17:56:13.035Z,2.20
2019-01-04T17:58:41.895Z,2.20
2019-01-04T18:01:11.250Z,2.20
2019-01-04T18:03:40.105Z,2.20
2019-01-04T18:06:09.122Z,2.20
2019-01-04T18:08:37.996Z,2.20
2019-01-04T18:11:07.235Z,2.20
2019-01-04T18:13:36.073Z,2.20
2019-01-04T18:16:05.014Z,2.20
2019-01-04T18:18:33.912Z,2.20
2019-01-04T18:21:02.808Z,2.20
2019-01-04T18:23:31.650Z,2.20
2019-01-04T18:26:00.520Z,2.20
2019-01-04T18:28:29.491Z,2.20
2019-01-04T18:30:58.509Z,2.20
2019-01-04T18:33:27.382Z,2.20
2019-01-04T18:35:56.569Z,2.20
2019-01-04T18:38:25.763Z,2.20
2019-01-04T18:40:54.614Z,2.20
2019-01-04T18:43:24.001Z,2.20
2019-01-04T18:45:52.869Z,2.20
2019-01-04T18:48:21.741Z,2.20
2019-01-04T18:50:52.063Z,2.20
2019-01-04T18:53:20.906Z,2.20
2019-01-04T18:55:49.910Z,2.20
2019-01-04T18:58:18.920Z,2.20
2019-01-04T19:00:48.135Z,2.20
2019-01-04T19:03:16.974Z,2.20
2019-01-04T19:05:45.835Z,2.20
2019-01-04T19:08:14.990Z,2.20
2019-01-04T19:10:43.855Z,2.20
2019-01-04T19:13:12.708Z,2.20
2019-01-04T19:15:41.735Z,2.20
2019-01-04T19:18:10.783Z,2.20
2019-01-04T19:20:39.687Z,2.20
2019-01-04T19:23:08.533Z,2.20
2019-01-04T19:25:37.406Z,2.20
2019-01-04T19:28:06.257Z,2.20
2019-01-04T19:30:35.530Z,2.20
2019-01-04T19:33:04.821Z,2.20
2019-01-04T19:35:33.747Z,2.20
2019-01-04T19:38:02.671Z,2.20
2019-01-04T19:40:31.609Z,2.20
2019-01-04T19:43:00.486Z,2.20
2019-01-04T19:45:29.514Z,2.20
2019-01-04T19:47:58.359Z,2.20
2019-01-04T19:50:27.578Z,2.10
2019-01-04T19:52:56.708Z,2.10
2019-01-04T19:55:25.870Z,2.20
2019-01-04T19:57:54.993Z,2.20
2019-01-04T20:00:23.833Z,2.10
2019-01-04T20:02:52.722Z,2.10
2019-01-04T20:05:31.156Z,2.10
2019-01-04T20:08:30.982Z,2.10
2019-01-04T20:12:04.317Z,2.10
2019-01-04T20:15:43.513Z,2.10
2019-01-04T20:18:34.589Z,2.10
2019-01-04T20:21:28.596Z,2.10
2019-01-04T20:24:08.653Z,2.10
2019-01-04T20:26:55.469Z,2.00
2019-01-04T20:30:01.793Z,2.00
2019-01-04T20:32:48.401Z,2.00
2019-01-04T20:35:35.312Z,2.00
2019-01-04T20:38:18.402Z,2.00
2019-01-04T20:41:11.038Z,2.00
2019-01-04T20:43:58.645Z,2.00
2019-01-04T20:46:58.894Z,2.00
2019-01-04T20:49:52.572Z,2.00
2019-01-04T20:52:40.443Z,2.00
2019-01-04T20:55:21.797Z,2.00
2019-01-04T20:58:06.938Z,2.00
2019-01-04T21:01:04.222Z,2.00
2019-01-04T21:04:10.529Z,2.00
2019-01-04T21:06:57.368Z,2.00
2019-01-04T21:09:41.889Z,2.00
2019-01-04T21:12:34.478Z,2.00
2019-01-04T21:15:36.475Z,2.00
2019-01-04T21:18:23.080Z,2.00
2019-01-04T21:21:10.959Z,2.00
2019-01-04T21:24:03.734Z,2.00
2019-01-04T21:26:54.349Z,2.00
2019-01-04T21:29:34.627Z,2.00
2019-01-04T21:32:31.501Z,2.10
2019-01-04T21:35:31.385Z,2.10
2019-01-04T21:38:28.295Z,2.10
2019-01-04T21:41:17.692Z,2.10
2019-01-04T21:44:00.996Z,2.10
2019-01-04T21:46:50.766Z,2.10
2019-01-04T21:49:44.144Z,2.10
2019-01-04T21:52:32.011Z,2.10
2019-01-04T21:55:28.217Z,2.10
2019-01-04T21:58:34.269Z,2.10
2019-01-04T22:01:37.640Z,2.10
2019-01-04T22:04:28.309Z,2.10
2019-01-04T22:07:15.001Z,2.10
2019-01-04T22:10:07.321Z,2.10
2019-01-04T22:13:01.323Z,2.10
2019-01-04T22:15:54.266Z,2.10
2019-01-04T22:18:48.369Z,2.10
2019-01-04T22:21:35.020Z,2.10
2019-01-04T22:24:21.882Z,2.10
2019-01-04T22:27:03.342Z,2.10
2019-01-04T22:29:58.044Z,2.20
2019-01-04T22:32:48.970Z,2.10
2019-01-04T22:35:36.834Z,2.10
2019-01-04T22:38:16.025Z,2.20
2019-01-04T22:41:02.829Z,2.20
2019-01-04T22:43:49.635Z,2.20
2019-01-04T22:46:49.880Z,2.10
2019-01-04T22:49:33.214Z,2.10
2019-01-04T22:52:20.137Z,2.20
2019-01-04T22:55:08.010Z,2.10
2019-01-04T22:57:56.677Z,2.20
2019-01-04T23:00:39.408Z,2.20
2019-01-04T23:03:36.858Z,2.20
2019-01-04T23:06:33.858Z,2.20
2019-01-04T23:09:30.896Z,2.20
2019-01-04T23:12:24.913Z,2.20
2019-01-04T23:15:11.986Z,2.20
2019-01-04T23:17:51.996Z,2.20
2019-01-04T23:20:35.525Z,2.10
2019-01-04T23:23:22.235Z,2.10
2019-01-04T23:26:09.109Z,2.10
2019-01-04T23:28:52.287Z,2.10
2019-01-04T23:31:47.906Z,2.10
2019-01-04T23:34:34.678Z,2.10
2019-01-04T23:37:41.165Z,2.10
2019-01-04T23:40:27.876Z,2.10
2019-01-04T23:43:12.310Z,2.10
2019-01-04T23:46:00.343Z,2.10
2019-01-04T23:49:00.442Z,2.10
2019-01-04T23:51:47.626Z,2.10
2019-01-04T23:54:34.333Z,2.10
2019-01-04T23:57:20.832Z,2.10
